createdAt,value
2019-02-28T00:03:42.274Z,13.00
2019-02-28T00:06:12.646Z,13.63
2019-02-28T00:08:41.786Z,14.20
2019-02-28T00:11:10.691Z,14.00
2019-02-28T00:13:39.571Z,14.53
2019-02-28T00:16:08.485Z,15.10
2019-02-28T00:18:37.422Z,15.30
2019-02-28T00:21:07.108Z,15.70
2019-02-28T00:23:36.131Z,15.50
2019-02-28T00:26:05.057Z,14.57
2019-02-28T00:28:34.027Z,14.60
2019-02-28T00:31:02.953Z,16.43
2019-02-28T00:33:31.885Z,14.93
2019-02-28T00:36:00.805Z,16.47
2019-02-28T00:38:30.412Z,17.47
2019-02-28T00:40:59.473Z,19.13
2019-02-28T00:43:28.413Z,17.47
2019-02-28T00:45:57.349Z,20.20
2019-02-28T00:48:26.262Z,20.97
2019-02-28T00:50:57.871Z,20.40
2019-02-28T00:53:25.730Z,20.60
2019-02-28T00:55:54.652Z,20.53
2019-02-28T00:58:28.600Z,21.50
2019-02-28T01:00:54.127Z,20.87
2019-02-28T01:03:27.260Z,22.10
2019-02-28T01:05:54.662Z,20.13
2019-02-28T01:08:23.633Z,21.60
2019-02-28T01:10:52.556Z,21.17
2019-02-28T01:13:21.490Z,20.97
2019-02-28T01:15:50.413Z,20.33
2019-02-28T01:18:19.330Z,19.57
2019-02-28T01:20:50.732Z,19.43
2019-02-28T01:23:18.813Z,19.83
2019-02-28T01:25:47.785Z,19.47
2019-02-28T01:28:17.666Z,21.07
2019-02-28T01:30:46.602Z,21.00
2019-02-28T01:33:15.514Z,21.10
2019-02-28T01:35:44.458Z,20.30
2019-02-28T01:38:13.384Z,20.67
2019-02-28T01:40:42.329Z,21.43
2019-02-28T01:43:11.246Z,22.80
2019-02-28T01:45:43.459Z,21.10
2019-02-28T01:48:10.718Z,20.73
2019-02-28T01:50:39.647Z,20.63
2019-02-28T01:53:08.616Z,20.60
2019-02-28T01:55:37.534Z,21.60
2019-02-28T01:58:06.362Z,21.67
2019-02-28T02:00:35.306Z,21.87
2019-02-28T02:03:04.297Z,20.27
2019-02-28T02:05:33.282Z,21.60
2019-02-28T02:08:06.483Z,21.37
2019-02-28T02:10:32.769Z,21.03
2019-02-28T02:13:03.193Z,20.47
2019-02-28T02:15:32.198Z,19.73
2019-02-28T02:18:01.124Z,22.27
2019-02-28T02:20:30.056Z,21.40
2019-02-28T02:22:59.003Z,22.07
2019-02-28T02:25:27.912Z,23.50
2019-02-28T02:27:56.909Z,22.87
2019-02-28T02:30:25.874Z,23.57
2019-02-28T02:32:54.826Z,22.97
2019-02-28T02:35:23.757Z,21.13
2019-02-28T02:37:52.706Z,23.00
2019-02-28T02:40:23.044Z,23.37
2019-02-28T02:42:52.142Z,23.87
2019-02-28T02:45:22.023Z,23.93
2019-02-28T02:47:51.038Z,23.40
2019-02-28T02:50:19.972Z,24.90
2019-02-28T02:52:48.898Z,23.23
2019-02-28T02:55:18.008Z,24.27
2019-02-28T02:57:50.534Z,24.53
2019-02-28T03:00:17.963Z,24.50
2019-02-28T03:02:46.991Z,25.03
2019-02-28T03:05:15.912Z,24.03
2019-02-28T03:07:44.844Z,24.73
2019-02-28T03:10:17.322Z,24.57
2019-02-28T03:12:45.199Z,23.63
2019-02-28T03:15:15.206Z,25.93
2019-02-28T03:17:47.235Z,26.37
2019-02-28T03:20:14.842Z,24.17
2019-02-28T03:22:43.802Z,27.30
2019-02-28T03:25:13.272Z,27.60
2019-02-28T03:27:42.233Z,27.90
2019-02-28T03:30:26.054Z,28.37
2019-02-28T03:32:44.370Z,28.83
2019-02-28T03:35:13.302Z,29.23
2019-02-28T03:37:42.253Z,28.97
2019-02-28T03:40:11.557Z,28.70
2019-02-28T03:42:40.521Z,31.83
2019-02-28T03:45:10.409Z,28.53
2019-02-28T03:47:39.363Z,29.97
2019-02-28T03:50:08.871Z,30.37
2019-02-28T03:52:42.252Z,29.67
2019-02-28T03:55:10.224Z,31.40
2019-02-28T03:57:39.166Z,32.03
2019-02-28T04:00:09.723Z,34.77
2019-02-28T04:02:38.654Z,32.63
2019-02-28T04:05:07.605Z,33.50
2019-02-28T04:07:36.542Z,32.77
2019-02-28T04:10:06.326Z,33.87
2019-02-28T04:12:35.262Z,33.93
2019-02-28T04:15:05.774Z,35.93
2019-02-28T04:17:36.010Z,35.80
2019-02-28T04:20:05.601Z,36.23
2019-02-28T04:22:34.538Z,37.03
2019-02-28T04:25:04.053Z,36.57
2019-02-28T04:27:32.988Z,35.07
2019-02-28T04:30:06.609Z,36.23
2019-02-28T04:32:32.547Z,37.73
2019-02-28T04:35:01.516Z,37.90
2019-02-28T04:37:31.489Z,36.57
2019-02-28T04:40:00.452Z,36.87
2019-02-28T04:42:29.388Z,38.13
2019-02-28T04:44:58.239Z,37.20
2019-02-28T04:47:27.185Z,39.23
2019-02-28T04:49:57.042Z,38.60
2019-02-28T04:52:26.632Z,38.83
2019-02-28T04:54:55.474Z,39.67
2019-02-28T04:57:24.382Z,39.90
2019-02-28T04:59:53.350Z,41.63
2019-02-28T05:02:22.265Z,40.13
2019-02-28T05:04:51.198Z,41.73
2019-02-28T05:07:20.119Z,41.63
2019-02-28T05:09:49.089Z,40.40
2019-02-28T05:12:18.013Z,41.10
2019-02-28T05:14:46.957Z,38.77
2019-02-28T05:17:15.936Z,40.73
2019-02-28T05:19:44.833Z,40.30
2019-02-28T05:22:13.752Z,40.93
2019-02-28T05:24:43.680Z,40.70
2019-02-28T05:27:12.773Z,39.70
2019-02-28T05:29:44.005Z,40.40
2019-02-28T05:32:12.224Z,41.80
2019-02-28T05:34:41.130Z,39.30
2019-02-28T05:37:51.426Z,37.17
2019-02-28T05:40:20.339Z,39.20
2019-02-28T05:42:49.273Z,39.47
2019-02-28T05:45:18.199Z,38.87
2019-02-28T05:47:47.546Z,38.57
2019-02-28T05:50:17.285Z,38.30
2019-02-28T05:52:46.450Z,38.30
2019-02-28T05:55:15.419Z,36.47
2019-02-28T05:57:44.943Z,37.93
2019-02-28T06:00:17.558Z,37.53
2019-02-28T06:02:46.416Z,38.73
2019-02-28T06:05:15.333Z,40.70
2019-02-28T06:07:44.258Z,39.07
2019-02-28T06:10:14.373Z,40.47
2019-02-28T06:12:44.139Z,40.70
2019-02-28T06:15:14.397Z,39.03
2019-02-28T06:17:44.394Z,38.90
2019-02-28T06:20:38.644Z,38.00
2019-02-28T06:23:09.283Z,37.20
2019-02-28T06:25:38.064Z,38.27
2019-02-28T06:28:06.962Z,34.57
2019-02-28T06:30:35.890Z,36.23
2019-02-28T06:33:04.810Z,35.10
2019-02-28T06:35:33.794Z,34.20
2019-02-28T06:38:02.668Z,32.57
2019-02-28T06:40:33.111Z,34.83
2019-02-28T06:43:02.168Z,33.80
2019-02-28T06:45:31.128Z,32.33
2019-02-28T06:48:00.070Z,34.10
2019-02-28T06:50:29.014Z,33.40
2019-02-28T06:52:59.316Z,30.90
2019-02-28T06:55:28.484Z,33.60
2019-02-28T06:57:58.784Z,35.67
2019-02-28T07:00:27.959Z,32.17
2019-02-28T07:02:56.910Z,33.93
2019-02-28T07:05:26.366Z,33.73
2019-02-28T07:07:55.320Z,34.00
2019-02-28T07:10:24.276Z,33.87
2019-02-28T07:12:53.211Z,32.37
2019-02-28T07:15:24.857Z,32.90
2019-02-28T07:17:52.716Z,32.23
2019-02-28T07:20:21.666Z,34.13
2019-02-28T07:22:54.352Z,32.73
2019-02-28T07:25:21.165Z,33.13
2019-02-28T07:27:50.126Z,32.60
2019-02-28T07:30:20.322Z,32.37
2019-02-28T07:32:49.269Z,32.63
2019-02-28T07:35:18.190Z,33.43
2019-02-28T07:37:47.142Z,34.20
2019-02-28T07:40:17.373Z,35.57
2019-02-28T07:42:46.418Z,34.57
2019-02-28T07:45:15.509Z,34.77
2019-02-28T07:47:44.428Z,35.90
2019-02-28T07:50:13.933Z,34.00
2019-02-28T07:52:42.889Z,34.70
2019-02-28T07:55:12.501Z,34.63
2019-02-28T07:57:41.527Z,36.03
2019-02-28T08:00:16.827Z,37.07
2019-02-28T08:02:42.654Z,37.40
2019-02-28T08:05:12.269Z,37.03
2019-02-28T08:07:41.200Z,37.07
2019-02-28T08:10:12.715Z,37.13
2019-02-28T08:12:41.905Z,35.30
2019-02-28T08:15:13.686Z,37.43
2019-02-28T08:17:43.905Z,35.57
2019-02-28T08:20:13.887Z,36.60
2019-02-28T08:22:42.821Z,36.57
2019-02-28T08:25:12.826Z,35.73
2019-02-28T08:27:41.730Z,36.33
2019-02-28T08:30:12.213Z,36.13
2019-02-28T08:32:43.916Z,35.97
2019-02-28T08:35:13.851Z,35.63
2019-02-28T08:37:42.837Z,36.50
2019-02-28T08:40:15.795Z,35.93
2019-02-28T08:42:44.315Z,35.83
2019-02-28T08:45:14.083Z,36.63
2019-02-28T08:47:43.085Z,35.37
2019-02-28T08:50:13.051Z,35.47
2019-02-28T08:52:42.270Z,37.13
2019-02-28T08:55:12.448Z,35.50
2019-02-28T08:57:42.437Z,34.27
2019-02-28T09:00:13.749Z,36.43
2019-02-28T09:02:42.668Z,35.37
2019-02-28T09:05:11.987Z,35.90
2019-02-28T09:07:40.969Z,35.23
2019-02-28T09:10:12.656Z,36.43
2019-02-28T09:12:41.708Z,37.27
2019-02-28T09:15:11.669Z,36.57
2019-02-28T09:17:40.853Z,36.80
2019-02-28T09:20:11.437Z,37.37
2019-02-28T09:22:40.352Z,36.67
2019-02-28T09:25:10.785Z,35.97
2019-02-28T09:27:39.785Z,40.30
2019-02-28T09:30:10.368Z,37.40
2019-02-28T09:32:39.278Z,38.53
2019-02-28T09:35:13.831Z,39.20
2019-02-28T09:37:38.818Z,39.03
2019-02-28T09:40:09.404Z,38.63
2019-02-28T09:42:38.355Z,37.97
2019-02-28T09:45:08.915Z,37.90
2019-02-28T09:47:37.860Z,39.67
2019-02-28T09:50:08.428Z,39.93
2019-02-28T09:52:41.225Z,38.90
2019-02-28T09:55:09.442Z,39.30
2019-02-28T09:57:39.471Z,40.43
2019-02-28T10:00:11.812Z,40.27
2019-02-28T10:02:43.790Z,42.07
2019-02-28T10:05:11.865Z,40.73
2019-02-28T10:07:40.893Z,43.73
2019-02-28T10:10:13.809Z,41.67
2019-02-28T10:12:43.169Z,43.03
2019-02-28T10:15:13.841Z,42.67
2019-02-28T10:17:42.782Z,42.63
2019-02-28T10:20:13.175Z,44.00
2019-02-28T10:22:44.266Z,46.50
2019-02-28T10:25:13.146Z,46.07
2019-02-28T10:27:43.153Z,44.80
2019-02-28T10:30:16.034Z,47.03
2019-02-28T10:33:09.158Z,46.83
2019-02-28T10:35:38.090Z,46.60
2019-02-28T10:38:07.033Z,48.17
2019-02-28T10:40:35.961Z,46.37
2019-02-28T10:43:06.060Z,47.53
2019-02-28T10:45:40.918Z,48.50
2019-02-28T10:48:06.617Z,50.10
2019-02-28T10:50:36.708Z,45.63
2019-02-28T10:53:06.158Z,47.50
2019-02-28T10:55:35.117Z,48.23
2019-02-28T10:58:04.265Z,48.97
2019-02-28T11:00:34.275Z,48.20
2019-02-28T11:03:03.485Z,48.50
2019-02-28T11:05:34.073Z,47.37
2019-02-28T11:08:03.274Z,45.43
2019-02-28T11:10:35.442Z,45.10
2019-02-28T11:13:03.697Z,47.03
2019-02-28T11:15:32.636Z,44.33
2019-02-28T11:18:01.592Z,46.00
2019-02-28T11:20:30.526Z,46.47
2019-02-28T11:22:59.549Z,44.80
2019-02-28T11:25:28.520Z,44.20
2019-02-28T11:27:57.453Z,43.60
2019-02-28T11:30:27.296Z,44.37
2019-02-28T11:32:56.249Z,45.67
2019-02-28T11:35:25.161Z,44.83
2019-02-28T11:37:54.112Z,41.47
2019-02-28T11:40:24.257Z,43.40
2019-02-28T11:42:53.182Z,42.23
2019-02-28T11:45:25.505Z,42.97
2019-02-28T11:47:55.047Z,43.70
2019-02-28T11:50:23.946Z,43.67
2019-02-28T11:52:52.901Z,43.73
2019-02-28T11:55:21.833Z,44.23
2019-02-28T11:57:51.044Z,44.33
2019-02-28T12:00:21.650Z,42.90
2019-02-28T12:02:53.217Z,42.50
2019-02-28T12:05:21.337Z,43.57
2019-02-28T12:07:50.336Z,43.10
2019-02-28T12:10:19.562Z,42.03
2019-02-28T12:12:48.528Z,42.00
2019-02-28T12:15:18.729Z,41.53
2019-02-28T12:17:47.676Z,43.67
2019-02-28T12:20:16.575Z,44.90
2019-02-28T12:22:49.392Z,42.70
2019-02-28T12:25:17.732Z,43.83
2019-02-28T12:27:46.678Z,43.27
2019-02-28T12:30:18.739Z,43.67
2019-02-28T12:32:47.520Z,42.70
2019-02-28T12:35:16.690Z,43.17
2019-02-28T12:37:45.623Z,43.67
2019-02-28T12:40:17.264Z,43.50
2019-02-28T12:42:46.182Z,42.43
2019-02-28T12:45:16.325Z,43.90
2019-02-28T12:47:45.923Z,45.30
2019-02-28T12:50:15.973Z,44.37
2019-02-28T12:52:48.857Z,44.83
2019-02-28T12:55:17.356Z,43.90
2019-02-28T12:57:46.252Z,46.03
2019-02-28T13:00:19.787Z,46.80
2019-02-28T13:02:47.250Z,46.77
2019-02-28T13:05:16.277Z,47.83
2019-02-28T13:07:45.197Z,47.23
2019-02-28T13:10:15.780Z,48.33
2019-02-28T13:12:48.963Z,47.30
2019-02-28T13:15:16.131Z,45.93
2019-02-28T13:17:45.133Z,47.13
2019-02-28T13:20:15.258Z,46.37
2019-02-28T13:22:44.247Z,47.90
2019-02-28T13:25:13.245Z,46.97
2019-02-28T13:27:45.268Z,49.17
2019-02-28T13:30:14.449Z,49.47
2019-02-28T13:32:43.358Z,46.70
2019-02-28T13:35:13.614Z,47.97
2019-02-28T13:37:44.709Z,48.53
2019-02-28T13:40:14.011Z,47.97
2019-02-28T13:42:42.958Z,47.90
2019-02-28T13:45:14.727Z,49.13
2019-02-28T13:47:46.406Z,47.57
2019-02-28T13:50:17.367Z,47.83
2019-02-28T13:52:46.418Z,46.27
2019-02-28T13:55:18.874Z,46.83
2019-02-28T13:57:46.987Z,44.67
2019-02-28T14:00:18.029Z,46.20
2019-02-28T14:02:47.000Z,47.10
2019-02-28T14:05:15.938Z,46.90
2019-02-28T14:07:44.884Z,45.90
2019-02-28T14:10:14.470Z,46.93
2019-02-28T14:12:43.406Z,47.33
2019-02-28T14:15:15.496Z,48.40
2019-02-28T14:17:44.756Z,46.83
2019-02-28T14:20:14.674Z,47.80
2019-02-28T14:22:45.825Z,46.13
2019-02-28T14:25:14.365Z,47.37
2019-02-28T14:27:43.490Z,46.50
2019-02-28T14:30:13.524Z,49.40
2019-02-28T14:32:44.081Z,46.37
2019-02-28T14:35:14.953Z,46.70
2019-02-28T14:37:43.912Z,47.40
2019-02-28T14:40:14.530Z,47.60
2019-02-28T14:42:44.403Z,47.43
2019-02-28T14:45:14.950Z,48.47
2019-02-28T14:47:44.061Z,48.00
2019-02-28T14:50:15.407Z,47.83
2019-02-28T14:52:44.296Z,48.20
2019-02-28T14:55:14.348Z,48.67
2019-02-28T14:57:43.314Z,49.17
2019-02-28T15:00:13.510Z,49.93
2019-02-28T15:02:42.681Z,50.07
2019-02-28T15:05:12.370Z,48.53
2019-02-28T15:07:42.088Z,48.47
2019-02-28T15:10:13.071Z,47.97
2019-02-28T15:12:42.080Z,48.50
2019-02-28T15:15:14.900Z,48.67
2019-02-28T15:17:42.746Z,49.20
2019-02-28T15:20:13.451Z,47.07
2019-02-28T15:22:42.414Z,47.83
2019-02-28T15:25:15.314Z,47.83
2019-02-28T15:27:43.707Z,46.97
2019-02-28T15:30:15.223Z,47.27
2019-02-28T15:32:44.227Z,47.07
2019-02-28T15:35:15.194Z,46.23
2019-02-28T15:37:44.697Z,46.37
2019-02-28T15:40:16.319Z,47.50
2019-02-28T15:42:45.361Z,47.17
2019-02-28T15:45:14.297Z,44.60
2019-02-28T15:47:43.286Z,45.13
2019-02-28T15:50:13.551Z,45.77
2019-02-28T15:52:43.650Z,45.77
2019-02-28T15:55:13.810Z,48.50
2019-02-28T15:57:42.735Z,45.07
2019-02-28T16:00:13.324Z,45.00
2019-02-28T16:02:43.093Z,44.90
2019-02-28T16:05:12.041Z,46.50
2019-02-28T16:07:40.953Z,47.03
2019-02-28T16:10:11.582Z,48.83
2019-02-28T16:12:40.505Z,47.17
2019-02-28T16:15:11.987Z,48.03
2019-02-28T16:17:41.312Z,46.83
2019-02-28T16:20:10.925Z,47.70
2019-02-28T16:22:39.883Z,47.53
2019-02-28T16:25:11.424Z,45.93
2019-02-28T16:27:41.057Z,47.87
2019-02-28T16:30:11.630Z,45.83
2019-02-28T16:32:40.539Z,49.03
2019-02-28T16:35:09.461Z,48.07
2019-02-28T16:37:38.381Z,47.07
2019-02-28T16:40:08.980Z,50.60
2019-02-28T16:42:37.972Z,48.10
2019-02-28T16:45:10.065Z,49.47
2019-02-28T16:47:39.042Z,49.70
2019-02-28T16:50:09.479Z,51.80
2019-02-28T16:52:39.940Z,50.27
2019-02-28T16:55:10.063Z,50.97
2019-02-28T16:57:38.998Z,52.60
2019-02-28T17:00:09.778Z,51.33
2019-02-28T17:02:40.613Z,52.70
2019-02-28T17:05:10.006Z,52.03
2019-02-28T17:07:40.473Z,52.07
2019-02-28T17:10:12.215Z,52.57
2019-02-28T17:12:42.797Z,53.50
2019-02-28T17:15:13.673Z,55.07
2019-02-28T17:17:47.127Z,53.83
2019-02-28T17:20:14.861Z,53.70
2019-02-28T17:22:43.777Z,55.87
2019-02-28T17:25:14.072Z,55.40
2019-02-28T17:27:44.820Z,53.87
2019-02-28T17:30:15.546Z,53.30
2019-02-28T17:32:44.503Z,55.10
2019-02-28T17:35:13.573Z,56.07
2019-02-28T17:37:42.510Z,55.87
2019-02-28T17:40:12.480Z,56.00
2019-02-28T17:42:41.484Z,58.67
2019-02-28T17:45:15.559Z,59.20
2019-02-28T17:47:44.782Z,56.97
2019-02-28T17:50:15.366Z,56.60
2019-02-28T17:52:46.023Z,56.40
2019-02-28T17:55:16.546Z,56.57
2019-02-28T17:57:48.791Z,48.27
2019-02-28T18:00:18.578Z,44.30
2019-02-28T18:02:49.153Z,43.67
2019-02-28T18:05:19.716Z,40.67
2019-02-28T18:07:50.329Z,37.63
2019-02-28T18:10:23.926Z,37.93
2019-02-28T18:12:53.102Z,34.53
2019-02-28T18:15:23.683Z,30.47
2019-02-28T18:17:52.566Z,27.80
2019-02-28T18:20:21.426Z,30.30
2019-02-28T18:22:52.139Z,27.97
2019-02-28T18:25:42.622Z,27.30
2019-02-28T18:28:13.444Z,24.13
2019-02-28T18:30:46.186Z,24.80
2019-02-28T18:33:15.215Z,24.20
2019-02-28T18:35:45.073Z,24.20
2019-02-28T18:38:14.818Z,24.97
2019-02-28T18:40:44.433Z,25.10
2019-02-28T18:43:13.753Z,25.17
2019-02-28T18:45:43.934Z,27.57
2019-02-28T18:48:14.636Z,26.23
2019-02-28T18:50:44.285Z,29.03
2019-02-28T18:53:13.741Z,29.03
2019-02-28T18:55:42.817Z,30.63
2019-02-28T18:58:11.744Z,30.43
2019-02-28T19:00:40.666Z,32.33
2019-02-28T19:03:09.809Z,33.40
2019-02-28T19:05:38.860Z,33.83
2019-02-28T19:08:07.756Z,36.30
2019-02-28T19:10:36.870Z,35.73
2019-02-28T19:13:05.831Z,39.37
2019-02-28T19:15:34.773Z,39.70
2019-02-28T19:18:03.868Z,43.00
2019-02-28T19:20:32.896Z,44.27
2019-02-28T19:23:01.811Z,45.67
2019-02-28T19:25:30.760Z,46.33
2019-02-28T19:27:59.682Z,51.33
2019-02-28T19:30:28.632Z,51.47
2019-02-28T19:32:57.573Z,49.57
2019-02-28T19:35:26.512Z,51.07
2019-02-28T19:37:55.521Z,53.13
2019-02-28T19:40:24.449Z,52.83
2019-02-28T19:42:53.401Z,52.43
2019-02-28T19:45:23.961Z,53.10
2019-02-28T19:47:52.902Z,50.87
2019-02-28T19:50:21.850Z,50.33
2019-02-28T19:52:50.798Z,53.57
2019-02-28T19:55:19.706Z,53.40
2019-02-28T19:57:48.805Z,55.47
2019-02-28T20:00:18.433Z,55.10
2019-02-28T20:02:47.365Z,54.20
2019-02-28T20:05:16.370Z,53.73
2019-02-28T20:07:45.381Z,52.47
2019-02-28T20:10:15.083Z,55.40
2019-02-28T20:12:44.362Z,55.03
2019-02-28T20:15:14.853Z,55.20
2019-02-28T20:17:43.885Z,56.73
2019-02-28T20:20:14.433Z,57.43
2019-02-28T20:22:43.429Z,56.20
2019-02-28T20:25:13.025Z,54.40
2019-02-28T20:27:42.345Z,52.53
2019-02-28T20:30:12.583Z,54.27
2019-02-28T20:32:41.614Z,51.23
2019-02-28T20:35:10.589Z,51.80
2019-02-28T20:37:39.548Z,51.40
2019-02-28T20:40:10.092Z,51.30
2019-02-28T20:42:39.052Z,52.37
2019-02-28T20:45:09.150Z,51.20
2019-02-28T20:47:38.083Z,51.10
2019-02-28T20:50:08.824Z,46.77
2019-02-28T20:52:37.751Z,42.87
2019-02-28T20:55:07.345Z,41.47
2019-02-28T20:57:36.482Z,42.27
2019-02-28T21:00:06.986Z,41.57
2019-02-28T21:02:36.521Z,41.93
2019-02-28T21:05:05.843Z,43.33
2019-02-28T21:07:34.907Z,43.60
2019-02-28T21:10:05.454Z,44.30
2019-02-28T21:12:36.191Z,48.10
2019-02-28T21:15:07.040Z,45.73
2019-02-28T21:17:36.174Z,49.80
2019-02-28T21:20:06.861Z,44.40
2019-02-28T21:22:37.495Z,45.20
2019-02-28T21:25:08.221Z,46.60
2019-02-28T21:27:37.428Z,46.03
2019-02-28T21:30:08.080Z,47.40
2019-02-28T21:32:37.082Z,46.57
2019-02-28T21:35:06.005Z,46.67
2019-02-28T21:37:35.617Z,44.87
2019-02-28T21:40:06.433Z,46.23
2019-02-28T21:42:36.946Z,45.80
2019-02-28T21:45:07.775Z,46.37
2019-02-28T21:47:38.326Z,47.77
2019-02-28T21:50:09.226Z,46.47
2019-02-28T21:52:38.134Z,45.73
2019-02-28T21:55:08.521Z,47.03
2019-02-28T21:57:38.208Z,45.03
2019-02-28T22:00:08.713Z,42.83
2019-02-28T22:02:39.253Z,47.40
2019-02-28T22:05:09.466Z,47.80
2019-02-28T22:07:38.373Z,45.80
2019-02-28T22:10:08.755Z,46.97
2019-02-28T22:12:37.661Z,45.73
2019-02-28T22:15:09.679Z,44.27
2019-02-28T22:17:38.941Z,41.70
2019-02-28T22:20:08.814Z,42.47
2019-02-28T22:22:37.745Z,41.47
2019-02-28T22:28:37.095Z,40.97
2019-02-28T22:31:07.689Z,40.27
2019-02-28T22:33:38.244Z,39.17
2019-02-28T22:36:08.873Z,38.37
2019-02-28T22:38:37.796Z,39.00
2019-02-28T22:41:07.682Z,40.83
2019-02-28T22:43:36.640Z,38.20
2019-02-28T22:46:05.587Z,37.80
2019-02-28T22:48:34.552Z,36.73
2019-02-28T22:51:03.484Z,36.73
2019-02-28T22:53:32.389Z,35.20
2019-02-28T22:56:01.314Z,35.77
2019-02-28T22:58:30.309Z,34.43
2019-02-28T23:01:02.517Z,35.47
2019-02-28T23:03:32.958Z,34.90
2019-02-28T23:06:01.908Z,34.03
2019-02-28T23:08:30.818Z,32.43
2019-02-28T23:10:59.750Z,33.93
2019-02-28T23:13:28.770Z,31.60
2019-02-28T23:15:57.685Z,30.70
2019-02-28T23:18:26.585Z,29.20
2019-02-28T23:20:55.552Z,27.53
2019-02-28T23:23:24.449Z,26.53
2019-02-28T23:25:53.494Z,25.43
2019-02-28T23:28:22.341Z,24.30
2019-02-28T23:30:52.810Z,24.17
2019-02-28T23:33:22.750Z,24.43
2019-02-28T23:35:51.664Z,23.87
2019-02-28T23:38:20.621Z,24.43
2019-02-28T23:40:49.534Z,24.63
2019-02-28T23:43:18.470Z,24.47
2019-02-28T23:45:47.397Z,24.80
2019-02-28T23:48:16.334Z,24.60
2019-02-28T23:50:45.404Z,24.30
2019-02-28T23:53:14.324Z,25.17
2019-02-28T23:55:43.197Z,26.33
2019-02-28T23:58:12.139Z,25.00
